Time;durP1;ratioP1;P1;durP2;ratioP2;P2;SDS_P1;SDS_P2;PMS_P1;PMS_P2;Temp;Humidity;BMP_temperature;BMP_pressure;BME280_temperature;BME280_humidity;BME280_pressure;Samples;Min_cycle;Max_cycle;Signal;HPM_P1;HPM_P2
2023/12/25 00:01:19;;;;;;;8.53;2.30;;;12.30;99.90;;;11.45;100.00;99240.53;5036319;28;20245;-71
2023/12/25 00:03:48;;;;;;;10.40;2.37;;;12.20;99.90;;;11.45;100.00;99232.50;5036292;28;20209;-71
2023/12/25 00:06:19;;;;;;;7.03;2.20;;;12.20;99.90;;;11.40;100.00;99226.09;5036266;28;20265;-71
2023/12/25 00:08:51;;;;;;;5.30;1.97;;;12.30;99.90;;;11.41;100.00;99233.94;5036114;28;20339;-71
2023/12/25 00:11:20;;;;;;;7.37;2.10;;;12.30;99.90;;;11.35;100.00;99242.78;5036189;28;20200;-71
2023/12/25 00:13:51;;;;;;;6.83;2.10;;;12.20;99.90;;;11.35;100.00;99228.56;5034838;28;20586;-71
2023/12/25 00:16:19;;;;;;;6.37;2.20;;;12.20;99.90;;;11.35;100.00;99253.50;5036116;28;20195;-71
2023/12/25 00:18:48;;;;;;;5.13;2.00;;;12.20;99.90;;;11.34;100.00;99243.78;5035997;28;20223;-71
2023/12/25 00:21:16;;;;;;;5.27;2.20;;;12.10;99.90;;;11.32;100.00;99227.13;5035983;28;20293;-71
2023/12/25 00:23:45;;;;;;;5.73;1.93;;;12.20;99.90;;;11.28;100.00;99223.19;5035630;28;20207;-70
2023/12/25 00:26:13;;;;;;;8.40;2.17;;;12.10;99.90;;;11.27;100.00;99223.41;5035870;28;20257;-70
2023/12/25 00:28:41;;;;;;;4.90;2.20;;;12.00;99.90;;;11.24;100.00;99216.56;5035682;28;20226;-71
2023/12/25 00:31:09;;;;;;;8.43;2.27;;;12.10;99.90;;;11.22;100.00;99215.13;5035471;28;20638;-71
2023/12/25 00:33:37;;;;;;;8.07;2.23;;;12.00;99.90;;;11.18;100.00;99231.59;5035711;28;20286;-71
2023/12/25 00:36:08;;;;;;;5.87;2.13;;;11.90;99.90;;;11.18;100.00;99220.88;5035729;28;20252;-71
2023/12/25 00:38:36;;;;;;;6.73;2.40;;;11.90;99.90;;;11.20;100.00;99224.19;5035643;28;20280;-71
2023/12/25 00:41:05;;;;;;;8.00;2.37;;;12.00;99.90;;;11.21;100.00;99222.31;5035608;28;20209;-71
2023/12/25 00:43:33;;;;;;;8.63;2.70;;;12.00;99.90;;;11.25;100.00;99212.88;5035265;28;20647;-71
2023/12/25 00:46:05;;;;;;;6.27;2.03;;;12.00;99.90;;;11.28;100.00;99225.84;5035526;28;20289;-71
2023/12/25 00:48:34;;;;;;;7.47;2.60;;;12.00;99.90;;;11.28;100.00;99239.25;5035049;28;20330;-71
2023/12/25 00:51:02;;;;;;;8.00;2.83;;;12.00;99.90;;;11.29;100.00;99237.41;5035066;28;20226;-71
2023/12/25 00:53:31;;;;;;;5.83;2.30;;;12.00;99.90;;;11.28;100.00;99244.59;5035368;28;20214;-71
2023/12/25 00:56:04;;;;;;;8.90;2.40;;;12.10;99.90;;;11.25;100.00;99238.81;5035322;28;20203;-71
2023/12/25 00:58:33;;;;;;;7.97;2.17;;;12.00;99.90;;;11.28;100.00;99236.56;5034939;28;20254;-71
2023/12/25 01:01:01;;;;;;;6.87;2.10;;;12.00;99.90;;;11.24;100.00;99229.97;5035507;28;20210;-70
2023/12/25 01:03:29;;;;;;;8.00;2.53;;;12.00;99.90;;;11.18;100.00;99230.78;5035210;28;20264;-70
2023/12/25 01:05:57;;;;;;;6.33;2.17;;;12.00;99.90;;;11.10;100.00;99242.47;5034867;28;20672;-70
2023/12/25 01:08:26;;;;;;;6.67;2.60;;;12.00;99.90;;;11.03;100.00;99233.59;5035013;28;20231;-71
2023/12/25 01:10:55;;;;;;;7.73;2.63;;;11.90;99.90;;;10.97;100.00;99233.56;5034716;28;20692;-71
2023/12/25 01:13:23;;;;;;;5.47;2.20;;;11.80;99.90;;;10.91;100.00;99224.50;5035056;28;20238;-71
2023/12/25 01:15:52;;;;;;;7.50;2.20;;;11.80;99.90;;;10.89;100.00;99225.72;5034970;28;20285;-71
2023/12/25 01:18:20;;;;;;;5.00;2.30;;;11.60;99.90;;;10.91;100.00;99226.34;5034558;28;20321;-71
2023/12/25 01:20:48;;;;;;;5.83;2.10;;;11.60;99.90;;;10.91;100.00;99226.34;5034538;28;20548;-71
2023/12/25 01:23:17;;;;;;;7.63;2.00;;;11.60;99.90;;;10.95;100.00;99222.25;5034686;28;20206;-71
2023/12/25 01:25:45;;;;;;;5.67;1.93;;;11.80;99.90;;;10.92;100.00;99230.66;5034776;28;20298;-71
2023/12/25 01:28:14;;;;;;;8.10;2.50;;;11.70;99.90;;;10.89;100.00;99225.72;5034671;28;20254;-71
2023/12/25 01:30:43;;;;;;;8.97;2.07;;;11.80;99.90;;;10.89;100.00;99215.81;5034584;28;20313;-71
2023/12/25 01:33:11;;;;;;;3.90;2.10;;;11.60;99.90;;;10.90;100.00;99217.47;5034592;28;20202;-71
2023/12/25 01:35:40;;;;;;;5.50;2.63;;;11.70;99.90;;;10.92;100.00;99226.16;5034319;28;20676;-71
2023/12/25 01:38:08;;;;;;;6.27;2.10;;;11.80;99.90;;;10.93;100.00;99225.09;5034515;28;20230;-71
2023/12/25 01:40:37;;;;;;;5.30;2.30;;;11.70;99.90;;;10.93;100.00;99224.28;5034205;28;20297;-71
2023/12/25 01:43:05;;;;;;;5.73;2.03;;;11.80;99.90;;;10.94;100.00;99220.56;5034450;28;20261;-71
2023/12/25 01:45:34;;;;;;;6.67;2.10;;;11.70;99.90;;;11.01;100.00;99227.63;5034407;28;20286;-70
2023/12/25 01:48:03;;;;;;;8.03;1.90;;;11.80;99.90;;;11.05;100.00;99228.88;5034247;28;20254;-70
2023/12/25 01:50:32;;;;;;;6.17;2.00;;;11.80;99.90;;;11.06;100.00;99237.75;5033912;28;20223;-70
2023/12/25 01:53:01;;;;;;;5.43;1.80;;;11.80;99.90;;;11.05;100.00;99252.16;5034263;28;20215;-70
2023/12/25 01:55:29;;;;;;;7.47;2.20;;;11.90;99.90;;;11.06;100.00;99238.53;5034276;28;20203;-70
2023/12/25 01:57:57;;;;;;;3.87;1.60;;;11.90;99.90;;;11.06;100.00;99217.13;5034455;28;20318;-70
2023/12/25 02:00:25;;;;;;;4.33;1.50;;;12.00;99.90;;;11.10;100.00;99233.59;5034122;28;20218;-70
2023/12/25 02:02:55;;;;;;;3.03;1.73;;;11.90;99.90;;;11.08;100.00;99235.69;5034063;28;20206;-70
2023/12/25 02:05:23;;;;;;;4.10;1.97;;;11.90;99.90;;;11.07;100.00;99234.00;5034042;28;20203;-70
2023/12/25 02:07:52;;;;;;;4.07;2.30;;;11.90;99.90;;;11.09;100.00;99237.34;5033981;28;20226;-70
2023/12/25 02:10:28;;;;;;;5.57;1.97;;;11.80;99.90;;;11.07;100.00;99242.06;5033602;28;20774;-70
2023/12/25 02:12:57;;;;;;;5.00;1.90;;;11.80;99.90;;;11.13;100.00;99242.06;5033886;28;20257;-70
2023/12/25 02:15:26;;;;;;;3.80;1.80;;;11.80;99.90;;;11.10;100.00;99261.22;5033891;28;20306;-70
2023/12/25 02:17:56;;;;;;;5.03;1.80;;;11.90;99.90;;;11.11;100.00;99251.34;5033780;28;20313;-70
2023/12/25 02:20:25;;;;;;;3.53;1.40;;;11.80;99.90;;;11.12;100.00;99258.38;5033851;28;20211;-71
2023/12/25 02:22:56;;;;;;;5.60;1.80;;;12.10;99.90;;;11.10;100.00;99255.03;5033771;28;20213;-71
2023/12/25 02:25:32;;;;;;;5.57;1.73;;;12.00;99.90;;;11.09;100.00;99256.09;5033796;28;20282;-70
2023/12/25 02:28:02;;;;;;;5.93;2.03;;;11.80;99.90;;;11.15;100.00;99255.28;5033703;28;20241;-70
2023/12/25 02:30:30;;;;;;;4.47;1.70;;;11.90;99.90;;;11.11;100.00;99254.84;5033301;28;20771;-70
2023/12/25 02:33:04;;;;;;;3.43;1.60;;;12.00;99.90;;;11.12;100.00;99269.06;5033656;28;20209;-70
2023/12/25 02:35:33;;;;;;;3.90;1.83;;;11.90;99.90;;;11.12;100.00;99279.78;5033161;28;20273;-70
2023/12/25 02:38:01;;;;;;;5.10;1.90;;;12.00;99.90;;;11.13;100.00;99278.75;5033524;28;20231;-70
2023/12/25 02:40:30;;;;;;;4.60;1.90;;;12.00;99.90;;;11.20;100.00;99266.22;5034408;28;20297;-70
2023/12/25 02:42:58;;;;;;;5.57;1.67;;;12.10;99.90;;;11.16;100.00;99273.00;5033544;28;20213;-70
2023/12/25 02:45:28;;;;;;;5.27;1.80;;;12.00;99.90;;;11.14;100.00;99267.84;5033188;28;20207;-70
2023/12/25 02:47:56;;;;;;;6.30;2.07;;;12.00;99.90;;;11.18;100.00;99276.31;5033401;28;20259;-70
2023/12/25 02:50:25;;;;;;;5.67;1.70;;;12.00;99.90;;;11.14;100.00;99277.72;5033067;28;20238;-70
2023/12/25 02:52:53;;;;;;;5.87;2.10;;;12.00;99.90;;;11.11;100.00;99278.13;5033389;28;20215;-70
2023/12/25 02:55:21;;;;;;;6.03;1.80;;;11.80;99.90;;;11.08;100.00;99290.06;5033079;28;20695;-71
2023/12/25 02:57:50;;;;;;;4.87;2.17;;;11.90;99.90;;;11.12;100.00;99279.78;5033325;28;20309;-70
2023/12/25 03:00:19;;;;;;;7.87;1.80;;;12.00;99.90;;;11.09;100.00;99280.19;5033359;28;20305;-70
2023/12/25 03:02:48;;;;;;;4.47;1.80;;;11.80;99.90;;;11.10;100.00;99284.50;5033351;28;20202;-70
2023/12/25 03:05:17;;;;;;;5.47;2.27;;;11.80;99.90;;;11.05;100.00;99289.66;5033296;28;20253;-70
2023/12/25 03:07:45;;;;;;;7.07;1.77;;;11.90;99.90;;;11.04;100.00;99293.34;5033228;28;20227;-70
2023/12/25 03:10:13;;;;;;;4.47;1.40;;;12.00;99.90;;;11.05;100.00;99305.72;5033204;28;20320;-70
2023/12/25 03:12:41;;;;;;;5.60;1.90;;;11.80;99.90;;;11.02;100.00;99304.25;5033236;28;20257;-70
2023/12/25 03:15:10;;;;;;;8.60;2.20;;;11.90;99.90;;;11.02;100.00;99293.56;5033199;28;20249;-70
2023/12/25 03:17:38;;;;;;;6.87;2.27;;;11.70;99.90;;;11.03;100.00;99302.38;5033106;28;20313;-70
2023/12/25 03:20:10;;;;;;;6.47;1.77;;;11.80;99.90;;;11.03;100.00;99315.78;5033196;28;20210;-70
2023/12/25 03:22:38;;;;;;;6.93;1.90;;;11.80;99.90;;;11.06;100.00;99307.38;5033204;28;20239;-70
2023/12/25 03:25:07;;;;;;;6.97;1.90;;;11.90;99.90;;;11.05;100.00;99301.19;5033123;28;20202;-70
2023/12/25 03:27:35;;;;;;;5.27;1.73;;;11.80;99.90;;;11.08;100.00;99324.06;5033083;28;20267;-70
2023/12/25 03:30:04;;;;;;;5.50;1.97;;;11.90;99.90;;;11.05;100.00;99313.75;5032697;28;20719;-70
2023/12/25 03:32:33;;;;;;;4.50;1.47;;;11.80;99.90;;;11.01;100.00;99315.16;5033098;28;20211;-70
2023/12/25 03:35:02;;;;;;;4.57;1.80;;;11.90;99.90;;;11.01;100.00;99309.81;5033098;28;20234;-70
2023/12/25 03:37:31;;;;;;;4.50;1.80;;;11.80;99.90;;;10.97;100.00;99320.09;5032657;28;20751;-70
2023/12/25 03:39:59;;;;;;;7.33;2.03;;;11.80;99.90;;;10.98;100.00;99326.28;5032685;28;20298;-70
2023/12/25 03:42:28;;;;;;;4.07;1.60;;;11.80;99.90;;;10.99;100.00;99325.25;5032989;28;20262;-70
2023/12/25 03:44:56;;;;;;;5.10;1.70;;;11.80;99.90;;;10.94;100.00;99316.97;5032936;28;20301;-70
2023/12/25 03:47:24;;;;;;;6.27;1.80;;;11.70;99.90;;;10.93;100.00;99309.94;5033127;28;20227;-70
2023/12/25 03:49:53;;;;;;;4.03;1.63;;;11.80;99.90;;;10.97;100.00;99329.97;5036354;28;20218;-70
2023/12/25 03:52:21;;;;;;;5.23;1.70;;;11.70;99.90;;;10.95;100.00;99332.03;5036572;28;20237;-70
2023/12/25 03:54:50;;;;;;;4.13;1.60;;;11.80;99.90;;;10.92;100.00;99340.44;5036523;28;20210;-70
2023/12/25 03:57:18;;;;;;;3.90;1.47;;;11.70;99.90;;;10.90;100.00;99337.13;5036068;28;20736;-70
2023/12/25 03:59:46;;;;;;;4.17;1.50;;;11.70;99.90;;;10.92;100.00;99327.91;5036439;28;20202;-70
2023/12/25 04:02:14;;;;;;;3.77;1.40;;;11.80;99.90;;;10.91;100.00;99326.22;5036344;28;20213;-70
2023/12/25 04:04:43;;;;;;;2.90;1.30;;;11.80;99.90;;;10.90;100.00;99339.81;5036317;28;20202;-70
2023/12/25 04:07:11;;;;;;;4.30;1.57;;;11.70;99.90;;;10.88;100.00;99325.78;5035905;28;20780;-70
2023/12/25 04:09:40;;;;;;;3.67;1.30;;;11.80;99.90;;;10.87;100.00;99333.00;5036230;28;20289;-70
2023/12/25 04:12:09;;;;;;;5.80;1.50;;;11.60;99.90;;;10.90;100.00;99342.47;5036118;28;20317;-70
2023/12/25 04:14:39;;;;;;;4.70;1.60;;;11.70;99.90;;;10.92;100.00;99343.97;5036116;28;20203;-70
2023/12/25 04:17:07;;;;;;;3.80;1.80;;;11.70;99.90;;;10.92;100.00;99338.59;5035998;28;20203;-70
2023/12/25 04:19:35;;;;;;;4.17;1.50;;;11.70;99.90;;;10.91;100.00;99330.75;5036076;28;20264;-70
2023/12/25 04:22:04;;;;;;;5.43;1.60;;;11.80;99.90;;;10.91;100.00;99336.13;5036008;28;20218;-70
2023/12/25 04:24:32;;;;;;;6.73;1.53;;;11.70;99.90;;;10.90;100.00;99334.44;5035634;28;20646;-70
2023/12/25 04:27:01;;;;;;;3.83;1.50;;;11.70;99.90;;;10.86;100.00;99335.84;5035577;28;20681;-70
2023/12/25 04:29:30;;;;;;;3.90;1.30;;;11.70;99.90;;;10.83;100.00;99336.25;5035555;28;20211;-70
2023/12/25 04:31:58;;;;;;;3.57;1.30;;;11.60;99.90;;;10.87;100.00;99321.47;5035465;28;20234;-70
2023/12/25 04:34:26;;;;;;;3.17;1.53;;;11.70;99.90;;;10.85;96.77;99347.63;5035781;28;20234;-70
2023/12/25 04:36:55;;;;;;;3.33;1.60;;;11.60;99.90;;;10.79;97.79;99333.13;5035713;28;20253;-70
2023/12/25 04:39:23;;;;;;;4.47;1.60;;;11.60;99.90;;;10.78;97.54;99346.75;5035310;28;20258;-70
2023/12/25 04:41:51;;;;;;;4.27;1.50;;;11.60;99.90;;;10.74;98.40;99350.81;5035654;28;20282;-70
2023/12/25 04:44:19;;;;;;;5.37;1.40;;;11.60;99.90;;;10.71;100.00;99353.91;5035553;28;20226;-70
2023/12/25 04:46:48;;;;;;;3.87;1.30;;;11.50;99.90;;;10.68;98.44;99347.88;5035556;28;20206;-70
2023/12/25 04:49:17;;;;;;;3.90;1.30;;;11.60;99.90;;;10.66;100.00;99376.72;5035011;28;20265;-70
2023/12/25 04:51:45;;;;;;;5.23;1.70;;;11.40;99.90;;;10.68;97.59;99358.59;5035128;28;20731;-70
2023/12/25 04:54:13;;;;;;;3.03;1.57;;;11.60;99.90;;;10.67;98.61;99373.03;5035428;28;20290;-70
2023/12/25 04:56:41;;;;;;;3.30;1.57;;;11.40;99.90;;;10.69;96.92;99360.25;5035039;28;20731;-70
2023/12/25 04:59:10;;;;;;;7.60;1.47;;;11.60;99.90;;;10.68;98.15;99368.50;5034759;28;20230;-70
2023/12/25 05:01:38;;;;;;;4.27;1.57;;;11.60;99.90;;;10.69;99.15;99378.16;5035282;28;20202;-70
2023/12/25 05:04:07;;;;;;;5.77;1.70;;;11.60;99.90;;;10.65;98.88;99377.72;5035217;28;20242;-70
2023/12/25 05:06:35;;;;;;;6.47;1.83;;;11.50;99.90;;;10.66;98.98;99383.91;5035161;28;20211;-70
2023/12/25 05:09:04;;;;;;;4.47;1.40;;;11.60;99.90;;;10.64;100.00;99378.75;5034741;28;20234;-70
2023/12/25 05:11:32;;;;;;;2.33;1.40;;;11.40;99.90;;;10.62;100.00;99386.13;5035036;28;20575;-70
2023/12/25 05:14:01;;;;;;;3.47;1.27;;;11.40;99.90;;;10.59;100.00;99385.69;5034707;28;20711;-70
2023/12/25 05:16:29;;;;;;;5.40;1.83;;;11.30;99.90;;;10.57;100.00;99398.47;5034960;28;20211;-70
2023/12/25 05:18:57;;;;;;;5.47;1.87;;;11.40;99.90;;;10.53;100.00;99392.66;5034904;28;20269;-70
2023/12/25 05:21:27;;;;;;;4.27;1.63;;;11.30;99.90;;;10.49;100.00;99399.41;5034606;28;20210;-70
2023/12/25 05:23:55;;;;;;;5.23;2.10;;;11.30;99.90;;;10.48;100.00;99403.09;5035171;28;20221;-70
2023/12/25 05:26:25;;;;;;;5.23;2.17;;;11.30;99.90;;;10.44;100.00;99396.50;5034479;28;20202;-70
2023/12/25 05:28:53;;;;;;;5.20;2.40;;;11.30;99.90;;;10.41;100.00;99396.84;5034704;28;20227;-70
2023/12/25 05:31:21;;;;;;;6.00;2.40;;;11.30;99.90;;;10.36;100.00;99387.75;5034637;28;20233;-70
2023/12/25 05:33:49;;;;;;;7.47;2.23;;;11.20;99.90;;;10.32;100.00;99394.50;5034660;28;20214;-70
2023/12/25 05:36:18;;;;;;;7.07;2.10;;;11.20;99.90;;;10.28;100.00;99383.38;5034554;28;20211;-70
2023/12/25 05:38:47;;;;;;;7.40;2.50;;;11.10;99.90;;;10.25;100.00;99410.50;5034598;28;20226;-70
2023/12/25 05:41:33;;;;;;;6.70;1.97;;;11.00;99.90;;;10.22;100.00;99402.03;5034622;28;20590;-70
2023/12/25 05:44:01;;;;;;;6.73;2.57;;;11.10;99.90;;;10.21;100.00;99403.03;5034442;28;20211;-70
2023/12/25 05:46:30;;;;;;;6.87;2.27;;;11.00;99.90;;;10.17;100.00;99416.00;5034414;28;20245;-70
2023/12/25 05:48:58;;;;;;;6.17;2.47;;;11.10;99.90;;;10.14;100.00;99405.63;5034302;28;20223;-70
2023/12/25 05:51:26;;;;;;;6.97;1.90;;;11.00;99.90;;;10.08;100.00;99415.22;5033836;28;20249;-71
2023/12/25 05:53:56;;;;;;;5.90;2.00;;;11.00;99.90;;;10.01;100.00;99413.50;5034002;28;20242;-70
2023/12/25 05:56:24;;;;;;;8.60;2.27;;;10.90;99.90;;;9.94;100.00;99423.28;5034307;28;20214;-70
2023/12/25 05:58:52;;;;;;;5.80;1.90;;;10.80;99.90;;;9.97;100.00;99439.78;5034139;28;20594;-71
2023/12/25 06:01:20;;;;;;;3.20;2.20;;;10.80;99.90;;;9.93;100.00;99443.84;5033825;28;20266;-71
2023/12/25 06:03:49;;;;;;;3.90;1.93;;;10.70;99.90;;;9.90;100.00;99443.38;5033814;28;20649;-71
2023/12/25 06:06:18;;;;;;;6.50;2.27;;;10.90;99.90;;;9.84;100.00;99438.78;5034032;28;20260;-71
2023/12/25 06:08:46;;;;;;;7.23;1.90;;;10.70;99.90;;;9.86;100.00;99434.09;5033621;28;20591;-71
2023/12/25 06:11:16;;;;;;;5.60;2.37;;;10.80;99.90;;;9.84;100.00;99428.09;5033184;28;20227;-70
2023/12/25 06:13:44;;;;;;;8.03;2.67;;;10.80;99.90;;;9.85;100.00;99440.47;5033955;28;20230;-70
2023/12/25 06:16:12;;;;;;;8.17;2.60;;;10.70;99.90;;;9.80;100.00;99451.69;5033581;28;20211;-70
2023/12/25 06:18:40;;;;;;;7.23;2.30;;;10.50;99.90;;;9.81;100.00;99439.16;5033509;28;20786;-70
2023/12/25 06:21:09;;;;;;;6.17;2.33;;;10.60;99.90;;;9.82;100.00;99451.53;5033803;28;20214;-70
2023/12/25 06:23:37;;;;;;;9.00;2.80;;;10.60;99.90;;;9.80;100.00;99433.00;5033764;28;20211;-70
2023/12/25 06:26:05;;;;;;;7.53;2.60;;;10.60;99.90;;;9.79;100.00;99449.22;5033722;28;20578;-70
2023/12/25 06:28:35;;;;;;;7.23;2.33;;;10.60;99.90;;;9.75;100.00;99443.44;5033667;28;20264;-70
2023/12/25 06:31:03;;;;;;;6.27;2.53;;;10.60;99.90;;;9.71;100.00;99444.81;5033324;28;20268;-70
2023/12/25 06:33:33;;;;;;;7.33;2.57;;;10.50;99.90;;;9.72;100.00;99443.81;5033376;28;20217;-70
2023/12/25 06:36:03;;;;;;;7.53;3.03;;;10.60;99.90;;;9.73;100.00;99457.97;5033313;28;20699;-70
2023/12/25 06:38:32;;;;;;;11.20;3.17;;;10.60;99.90;;;9.73;100.00;99457.97;5033602;28;20636;-70
2023/12/25 06:41:02;;;;;;;8.20;2.80;;;10.60;99.90;;;9.69;100.00;99458.34;5033582;28;20218;-70
2023/12/25 06:43:30;;;;;;;6.73;2.10;;;10.50;99.90;;;9.69;100.00;99453.00;5033503;28;20301;-70
2023/12/25 06:45:59;;;;;;;5.83;2.10;;;10.50;99.90;;;9.68;100.00;99451.38;5033646;28;20261;-70
2023/12/25 06:48:28;;;;;;;8.30;2.10;;;10.50;99.90;;;9.68;100.00;99464.72;5033073;28;20746;-70
2023/12/25 06:50:58;;;;;;;3.60;2.00;;;10.60;99.90;;;9.68;100.00;99464.72;5033094;28;20305;-70
2023/12/25 06:53:25;;;;;;;4.73;1.77;;;10.60;99.90;;;9.71;100.00;99481.41;5033048;28;20718;-70
2023/12/25 06:55:53;;;;;;;4.90;2.00;;;10.60;99.90;;;9.71;100.00;99486.75;5033114;28;20673;-70
2023/12/25 06:58:22;;;;;;;5.37;2.20;;;10.60;99.90;;;9.69;100.00;99474.38;5033330;28;20222;-70
2023/12/25 07:00:50;;;;;;;5.30;1.70;;;10.50;99.90;;;9.65;100.00;99478.47;5033292;28;20297;-73
2023/12/25 07:03:19;;;;;;;6.80;1.83;;;10.50;99.90;;;9.61;100.00;99497.72;5033307;28;20231;-74
2023/12/25 07:05:48;;;;;;;4.73;1.90;;;10.50;99.90;;;9.60;100.00;99491.53;5033010;28;20210;-74
2023/12/25 07:08:17;;;;;;;4.73;1.63;;;10.50;99.90;;;9.56;100.00;99511.63;5033262;28;20262;-74
2023/12/25 07:10:46;;;;;;;6.67;2.23;;;10.50;99.90;;;9.59;100.00;99516.59;5033322;28;20206;-74
2023/12/25 07:13:15;;;;;;;7.60;2.40;;;10.50;99.90;;;9.58;100.00;99522.97;5033187;28;20272;-75
2023/12/25 07:15:43;;;;;;;6.20;1.90;;;10.40;99.90;;;9.56;100.00;99522.31;5033241;28;20206;-75
2023/12/25 07:18:11;;;;;;;4.50;2.20;;;10.30;99.90;;;9.51;100.00;99527.38;5032844;28;20321;-74
2023/12/25 07:20:42;;;;;;;6.30;2.50;;;10.40;99.90;;;9.53;100.00;99528.00;5033186;28;20211;-74
2023/12/25 07:23:13;;;;;;;6.30;2.43;;;10.30;99.90;;;9.53;100.00;99525.34;5036294;28;20203;-74
2023/12/25 07:25:41;;;;;;;5.23;2.10;;;10.40;99.90;;;9.55;100.00;99539.38;5037129;28;20187;-74
2023/12/25 07:28:09;;;;;;;8.17;2.50;;;10.40;99.90;;;9.57;100.00;99555.19;5036937;28;20222;-74
2023/12/25 07:30:38;;;;;;;7.73;2.10;;;10.50;99.90;;;9.57;100.00;99550.69;5036962;28;20213;-75
2023/12/25 07:33:06;;;;;;;7.30;2.40;;;10.40;99.90;;;9.55;100.00;99550.06;5036872;28;20238;-75
2023/12/25 07:35:34;;;;;;;6.13;2.30;;;10.40;99.90;;;9.53;100.00;99551.22;5036920;28;20297;-75
2023/12/25 07:38:04;;;;;;;4.67;1.60;;;10.30;99.90;;;9.47;100.00;99544.78;5036481;28;20633;-75
2023/12/25 07:40:32;;;;;;;4.67;1.73;;;10.30;99.90;;;9.49;100.00;99552.59;5036817;28;20211;-75
2023/12/25 07:43:01;;;;;;;3.73;1.60;;;10.30;99.90;;;9.48;100.00;99557.13;5036443;28;20652;-75
2023/12/25 07:45:29;;;;;;;9.23;2.23;;;10.30;99.90;;;9.50;100.00;99560.44;5036688;28;20207;-75
2023/12/25 07:47:57;;;;;;;6.93;1.70;;;10.40;99.90;;;9.50;100.00;99559.59;5036600;28;20270;-74
2023/12/25 07:50:26;;;;;;;6.33;1.70;;;10.30;99.90;;;9.46;100.00;99553.78;5036223;28;20250;-74
2023/12/25 07:52:55;;;;;;;2.83;1.50;;;10.40;99.90;;;9.45;100.00;99541.44;5036513;28;20269;-75
2023/12/25 07:55:24;;;;;;;4.00;1.50;;;10.30;99.90;;;9.46;100.00;99561.81;5036567;28;20290;-75
2023/12/25 07:57:53;;;;;;;4.50;1.57;;;10.40;99.90;;;9.47;100.00;99581.34;5036395;28;20314;-74
2023/12/25 08:00:21;;;;;;;4.77;1.20;;;10.20;99.90;;;9.51;100.00;99583.50;5036430;28;20211;-74
2023/12/25 08:02:49;;;;;;;5.60;2.00;;;10.20;99.90;;;9.50;100.00;99589.84;5036342;28;20202;-74
2023/12/25 08:05:18;;;;;;;4.77;1.90;;;10.30;99.90;;;9.50;100.00;99587.16;5036017;28;20260;-74
2023/12/25 08:07:46;;;;;;;4.23;1.70;;;10.30;99.90;;;9.47;100.00;99598.22;5036273;28;20262;-74
2023/12/25 08:10:15;;;;;;;6.03;1.70;;;10.20;99.90;;;9.44;100.00;99595.06;5036255;28;20207;-74
2023/12/25 08:12:44;;;;;;;6.10;2.03;;;10.20;99.90;;;9.44;100.00;99593.22;5035857;28;20234;-74
2023/12/25 08:15:13;;;;;;;5.67;1.83;;;10.20;99.90;;;9.40;100.00;99583.91;5036185;28;20234;-74
2023/12/25 08:17:42;;;;;;;4.77;1.97;;;10.20;99.90;;;9.39;100.00;99584.09;5036056;28;20290;-74
2023/12/25 08:20:11;;;;;;;4.03;1.90;;;10.20;99.90;;;9.34;100.00;99586.47;5036032;28;20298;-74
2023/12/25 08:22:39;;;;;;;6.87;2.50;;;10.10;99.90;;;9.33;100.00;99607.00;5036021;28;20289;-74
2023/12/25 08:25:08;;;;;;;4.03;2.10;;;10.20;99.90;;;9.31;100.00;99603.72;5035957;28;20306;-75
2023/12/25 08:27:37;;;;;;;4.33;1.83;;;10.10;99.90;;;9.34;100.00;99619.38;5035593;28;20230;-75
2023/12/25 08:30:09;;;;;;;3.97;1.67;;;10.20;99.90;;;9.30;100.00;99620.72;5035870;28;20242;-75
2023/12/25 08:32:37;;;;;;;4.30;1.60;;;10.10;99.90;;;9.31;100.00;99617.06;5035815;28;20224;-75
2023/12/25 08:35:06;;;;;;;6.97;2.03;;;10.10;99.90;;;9.29;100.00;99605.72;5034995;28;20206;-75
2023/12/25 08:37:34;;;;;;;6.47;2.00;;;10.10;99.90;;;9.29;100.00;99600.38;5035688;28;20255;-75
2023/12/25 08:40:03;;;;;;;7.30;2.17;;;10.10;99.90;;;9.31;100.00;99602.88;5035707;28;20241;-75
2023/12/25 08:42:31;;;;;;;6.43;2.10;;;10.10;99.90;;;9.33;100.00;99601.66;5035671;28;20210;-75
2023/12/25 08:45:00;;;;;;;7.23;2.50;;;10.10;99.90;;;9.32;100.00;99605.34;5035587;28;20239;-75
2023/12/25 08:47:29;;;;;;;8.17;2.20;;;10.10;99.90;;;9.30;100.00;99604.72;5035452;28;20231;-75
2023/12/25 08:49:57;;;;;;;4.20;1.80;;;10.20;99.90;;;9.32;100.00;99610.69;5035280;28;20313;-75
2023/12/25 08:52:26;;;;;;;4.93;2.03;;;10.20;99.90;;;9.33;100.00;99606.19;5035370;28;20265;-75
2023/12/25 08:54:54;;;;;;;2.97;1.73;;;10.20;99.90;;;9.33;100.00;99622.22;5035037;28;20669;-75
2023/12/25 08:57:22;;;;;;;8.43;2.13;;;10.20;99.90;;;9.35;100.00;99645.06;5034937;28;20756;-74
2023/12/25 08:59:51;;;;;;;8.53;2.10;;;10.20;99.90;;;9.36;100.00;99644.06;5035019;28;20302;-75
2023/12/25 09:02:20;;;;;;;7.13;2.40;;;10.30;99.90;;;9.39;100.00;99651.69;5035337;28;20203;-75
2023/12/25 09:04:49;;;;;;;7.40;2.10;;;10.20;99.90;;;9.40;100.00;99645.34;5035288;28;20261;-75
2023/12/25 09:07:18;;;;;;;5.00;1.93;;;10.30;99.90;;;9.41;100.00;99640.84;5035104;28;20223;-75
2023/12/25 09:09:46;;;;;;;6.27;2.13;;;10.20;99.90;;;9.43;100.00;99650.34;5034856;28;20693;-75
2023/12/25 09:12:14;;;;;;;6.27;2.37;;;10.20;99.90;;;9.43;100.00;99655.69;5035080;28;20305;-75
2023/12/25 09:14:45;;;;;;;8.60;2.47;;;10.30;99.90;;;9.44;100.00;99657.34;5034975;28;20230;-75
2023/12/25 09:17:15;;;;;;;8.60;2.33;;;10.20;99.90;;;9.46;100.00;99668.69;5034977;28;20191;-75
2023/12/25 09:19:43;;;;;;;5.70;2.23;;;10.30;99.90;;;9.47;100.00;99664.16;5034959;28;20297;-76
2023/12/25 09:22:13;;;;;;;8.57;2.63;;;10.30;99.90;;;9.50;100.00;99667.31;5034902;28;20214;-75
2023/12/25 09:24:44;;;;;;;7.97;2.50;;;10.30;99.90;;;9.49;100.00;99660.31;5034887;28;20235;-75
2023/12/25 09:27:12;;;;;;;9.37;2.80;;;10.40;99.90;;;9.51;100.00;99674.34;5034451;28;20603;-75
2023/12/25 09:29:40;;;;;;;7.10;2.37;;;10.40;99.90;;;9.53;100.00;99674.13;5034789;28;20211;-75
2023/12/25 09:32:09;;;;;;;9.93;2.33;;;10.30;99.90;;;9.53;100.00;99682.97;5034671;28;20207;-75
2023/12/25 09:34:37;;;;;;;6.20;2.57;;;10.40;99.90;;;9.53;100.00;99682.97;5034637;28;20758;-75
2023/12/25 09:37:24;;;;;;;8.53;2.23;;;10.50;99.90;;;9.54;100.00;99687.31;5034567;28;20230;-74
2023/12/25 09:39:52;;;;;;;7.60;2.90;;;10.30;99.90;;;9.55;100.00;99675.63;5034593;28;20211;-75
2023/12/25 09:42:21;;;;;;;6.83;2.20;;;10.30;99.90;;;9.54;100.00;99679.31;5034201;28;20239;-76
2023/12/25 09:44:53;;;;;;;7.33;2.30;;;10.40;99.90;;;9.55;100.00;99688.16;5034430;28;20207;-76
2023/12/25 09:47:22;;;;;;;7.73;1.83;;;10.30;99.90;;;9.55;100.00;99691.66;5034051;28;20273;-75
2023/12/25 09:49:51;;;;;;;8.17;2.70;;;10.50;99.90;;;9.55;100.00;99686.31;5034224;28;20217;-75
2023/12/25 09:52:23;;;;;;;7.87;2.37;;;10.50;99.90;;;9.57;100.00;99700.31;5033993;28;20676;-75
2023/12/25 09:54:52;;;;;;;7.70;2.10;;;10.30;99.90;;;9.59;100.00;99686.78;5033946;28;20207;-76
2023/12/25 09:57:22;;;;;;;4.07;2.03;;;10.40;99.90;;;9.60;100.00;99691.94;5034198;28;20257;-74
2023/12/25 09:59:52;;;;;;;6.73;2.13;;;10.50;99.90;;;9.62;100.00;99695.25;5033860;28;20642;-75
2023/12/25 10:02:23;;;;;;;12.93;2.60;;;10.40;99.90;;;9.64;100.00;99690.59;5033882;28;20672;-75
2023/12/25 10:04:52;;;;;;;9.07;2.40;;;10.60;99.90;;;9.67;100.00;99692.88;5034158;28;20183;-75
2023/12/25 10:07:20;;;;;;;6.87;2.50;;;10.60;99.90;;;9.71;100.00;99700.53;5033657;28;20637;-75
2023/12/25 10:09:54;;;;;;;7.67;2.67;;;10.60;99.90;;;9.73;100.00;99701.19;5034029;28;20253;-75
2023/12/25 10:12:22;;;;;;;9.20;2.43;;;10.50;99.90;;;9.74;100.00;99700.19;5034039;28;20253;-75
2023/12/25 10:14:50;;;;;;;7.20;2.30;;;10.60;99.90;;;9.75;100.00;99707.19;5033567;28;20692;-75
2023/12/25 10:17:19;;;;;;;6.70;2.50;;;10.60;99.90;;;9.79;100.00;99703.16;5033513;28;20243;-75
2023/12/25 10:19:52;;;;;;;7.07;2.10;;;10.70;99.90;;;9.83;100.00;99705.28;5033899;28;20234;-75
2023/12/25 10:22:30;;;;;;;5.23;2.00;;;10.70;99.90;;;9.86;100.00;99688.91;5033807;28;20191;-75